createdAt,value
2023-04-03T00:00:02.497Z,1.80
2023-04-03T00:02:56.584Z,1.60
2023-04-03T00:05:28.650Z,1.80
2023-04-03T00:07:59.255Z,1.90
2023-04-03T00:10:29.732Z,2.10
2023-04-03T00:13:03.403Z,2.30
2023-04-03T00:15:35.906Z,2.00
2023-04-03T00:18:06.802Z,2.30
2023-04-03T00:20:40.075Z,2.10
2023-04-03T00:23:10.455Z,1.90
2023-04-03T00:25:41.425Z,1.90
2023-04-03T00:28:12.955Z,2.30
2023-04-03T00:30:43.350Z,1.80
2023-04-03T00:33:17.363Z,1.80
2023-04-03T00:35:50.585Z,2.10
2023-04-03T00:38:21.716Z,2.60
2023-04-03T00:40:53.242Z,2.70
2023-04-03T00:43:28.501Z,3.90
2023-04-03T00:46:00.973Z,3.60
2023-04-03T00:48:36.284Z,3.80
2023-04-03T00:51:10.054Z,3.60
2023-04-03T00:54:03.784Z,4.00
2023-04-03T00:56:41.093Z,4.10
2023-04-03T00:59:17.992Z,3.80
2023-04-03T01:01:49.554Z,3.50
2023-04-03T01:04:31.204Z,3.30
2023-04-03T01:07:11.489Z,3.70
2023-04-03T01:09:44.197Z,3.30
2023-04-03T01:12:30.038Z,2.60
2023-04-03T01:15:10.981Z,2.40
2023-04-03T01:17:50.792Z,2.20
2023-04-03T01:20:37.701Z,1.90
2023-04-03T01:23:11.034Z,1.70
2023-04-03T01:25:45.008Z,1.80
2023-04-03T01:28:30.921Z,1.80
2023-04-03T01:31:08.497Z,2.00
2023-04-03T01:33:40.743Z,1.50
2023-04-03T01:36:18.031Z,2.10
2023-04-03T01:38:51.327Z,1.60
2023-04-03T01:41:23.026Z,2.00
2023-04-03T01:43:57.717Z,2.00
2023-04-03T01:46:28.573Z,1.70
2023-04-03T01:48:58.884Z,1.70
2023-04-03T01:51:29.230Z,1.90
2023-04-03T01:54:05.692Z,2.40
2023-04-03T01:56:36.115Z,1.80
2023-04-03T01:59:06.373Z,2.10
2023-04-03T02:01:36.854Z,2.20
2023-04-03T02:04:07.865Z,1.90
2023-04-03T02:06:38.285Z,2.20
2023-04-03T02:09:10.264Z,1.80
2023-04-03T02:11:40.818Z,2.00
2023-04-03T02:14:11.137Z,1.60
2023-04-03T02:16:41.482Z,1.70
2023-04-03T02:19:12.022Z,1.50
2023-04-03T02:21:42.296Z,1.70
2023-04-03T02:24:12.369Z,1.90
2023-04-03T02:29:15.310Z,1.90
2023-04-03T02:31:48.071Z,1.50
2023-04-03T02:34:21.572Z,1.50
2023-04-03T02:36:53.189Z,1.70
2023-04-03T02:39:26.129Z,1.30
2023-04-03T02:41:59.868Z,1.50
2023-04-03T02:44:32.677Z,2.10
2023-04-03T02:47:04.196Z,1.60
2023-04-03T02:49:34.462Z,1.50
2023-04-03T02:52:05.026Z,1.90
2023-04-03T02:54:43.192Z,2.00
2023-04-03T02:57:13.927Z,1.70
2023-04-03T02:59:47.116Z,2.50
2023-04-03T03:02:19.103Z,1.60
2023-04-03T03:04:51.974Z,1.80
2023-04-03T03:07:22.421Z,1.80
2023-04-03T03:09:52.676Z,2.20
2023-04-03T03:12:25.963Z,2.40
2023-04-03T03:15:01.570Z,2.10
2023-04-03T03:17:37.468Z,1.50
2023-04-03T03:20:09.471Z,1.60
2023-04-03T03:22:41.790Z,1.70
2023-04-03T03:25:12.292Z,1.80
2023-04-03T03:27:45.035Z,1.90
2023-04-03T03:30:15.399Z,1.70
2023-04-03T03:32:47.613Z,1.60
2023-04-03T03:35:18.837Z,1.70
2023-04-03T03:37:52.098Z,1.60
2023-04-03T03:40:26.811Z,1.80
2023-04-03T03:42:57.179Z,1.80
2023-04-03T03:45:27.827Z,1.70
2023-04-03T03:47:58.255Z,3.00
2023-04-03T03:50:29.854Z,2.80
2023-04-03T03:53:00.576Z,2.00
2023-04-03T03:55:31.265Z,3.30
2023-04-03T03:58:07.801Z,3.40
2023-04-03T04:00:39.604Z,3.10
2023-04-03T04:03:10.170Z,3.20
2023-04-03T04:05:42.842Z,2.60
2023-04-03T04:08:13.253Z,2.10
2023-04-03T04:10:43.726Z,2.20
2023-04-03T04:13:20.698Z,2.20
2023-04-03T04:15:51.033Z,2.20
2023-04-03T04:18:23.906Z,2.10
2023-04-03T04:20:57.145Z,2.50
2023-04-03T04:23:27.613Z,2.30
2023-04-03T04:25:58.542Z,2.50
2023-04-03T04:28:32.554Z,2.20
2023-04-03T04:31:03.715Z,2.30
2023-04-03T04:33:36.221Z,2.20
2023-04-03T04:36:10.683Z,2.10
2023-04-03T04:38:41.458Z,2.70
2023-04-03T04:41:14.948Z,2.40
2023-04-03T04:43:45.049Z,2.60
2023-04-03T04:46:15.324Z,2.90
2023-04-03T04:48:52.039Z,2.20
2023-04-03T04:51:22.903Z,2.50
2023-04-03T04:53:54.840Z,2.50
2023-04-03T04:56:29.733Z,2.40
2023-04-03T04:59:01.638Z,2.80
2023-04-03T05:01:32.344Z,2.40
2023-04-03T05:04:14.164Z,2.60
2023-04-03T05:06:44.896Z,2.40
2023-04-03T05:09:21.388Z,2.60
2023-04-03T05:11:52.344Z,2.80
2023-04-03T05:14:26.813Z,2.20
2023-04-03T05:16:59.034Z,2.40
2023-04-03T05:19:31.851Z,2.50
2023-04-03T05:22:02.526Z,2.50
2023-04-03T05:24:33.445Z,2.10
2023-04-03T05:27:06.177Z,2.20
2023-04-03T05:29:38.335Z,2.30
2023-04-03T05:32:09.128Z,2.20
2023-04-03T05:34:39.709Z,2.10
2023-04-03T05:37:10.751Z,1.70
2023-04-03T05:39:42.573Z,2.10
2023-04-03T05:42:16.611Z,2.20
2023-04-03T05:44:48.560Z,2.00
2023-04-03T05:47:20.987Z,2.20
2023-04-03T05:49:54.061Z,2.00
2023-04-03T05:52:30.802Z,2.00
2023-04-03T05:55:04.778Z,2.20
2023-04-03T05:57:37.389Z,2.00
2023-04-03T06:00:12.000Z,2.00
2023-04-03T06:02:45.648Z,1.90
2023-04-03T06:05:21.398Z,2.40
2023-04-03T06:07:54.111Z,2.20
2023-04-03T06:10:24.763Z,2.00
2023-04-03T06:12:55.226Z,1.90
2023-04-03T06:15:28.655Z,1.90
2023-04-03T06:18:02.198Z,2.10
2023-04-03T06:20:38.463Z,2.10
2023-04-03T06:23:09.180Z,1.80
2023-04-03T06:25:45.148Z,2.00
2023-04-03T06:28:18.006Z,2.10
2023-04-03T06:30:48.318Z,1.40
2023-04-03T06:33:18.796Z,1.90
2023-04-03T06:35:49.550Z,1.90
2023-04-03T06:38:20.249Z,1.90
2023-04-03T06:40:52.149Z,2.20
2023-04-03T06:43:26.445Z,1.80
2023-04-03T06:45:57.232Z,2.00
2023-04-03T06:48:27.738Z,1.70
2023-04-03T06:51:01.091Z,1.90
2023-04-03T06:53:31.622Z,2.20
2023-04-03T06:56:04.330Z,1.80
2023-04-03T06:58:35.165Z,1.60
2023-04-03T07:01:07.362Z,1.40
2023-04-03T07:03:38.381Z,1.40
2023-04-03T07:06:17.062Z,1.70
2023-04-03T07:08:49.623Z,1.30
2023-04-03T07:11:20.201Z,1.50
2023-04-03T07:13:51.154Z,1.80
2023-04-03T07:16:22.138Z,1.40
2023-04-03T07:18:52.916Z,1.70
2023-04-03T07:21:23.161Z,1.60
2023-04-03T07:23:53.797Z,1.30
2023-04-03T07:26:25.374Z,1.60
2023-04-03T07:28:55.923Z,1.80
2023-04-03T07:31:26.741Z,1.50
2023-04-03T07:33:59.178Z,1.30
2023-04-03T07:36:30.374Z,1.20
2023-04-03T07:39:01.747Z,1.60
2023-04-03T07:41:35.481Z,1.40
2023-04-03T07:44:07.413Z,1.80
2023-04-03T07:46:40.600Z,1.20
2023-04-03T07:49:19.469Z,1.30
2023-04-03T07:51:49.976Z,1.70
2023-04-03T07:54:22.731Z,1.50
2023-04-03T07:56:53.295Z,1.40
2023-04-03T07:59:24.692Z,1.40
2023-04-03T08:01:55.259Z,1.40
2023-04-03T08:04:26.469Z,1.70
2023-04-03T08:07:00.318Z,1.70
2023-04-03T08:09:30.864Z,1.30
2023-04-03T08:12:03.284Z,1.50
2023-04-03T08:14:35.786Z,1.70
2023-04-03T08:17:06.846Z,1.20
2023-04-03T08:19:43.190Z,1.20
2023-04-03T08:22:16.128Z,1.30
2023-04-03T08:24:58.664Z,1.30
2023-04-03T08:27:36.842Z,1.70
2023-04-03T08:30:10.419Z,1.40
2023-04-03T08:32:41.400Z,1.10
2023-04-03T08:35:12.569Z,1.20
2023-04-03T08:37:44.128Z,1.30
2023-04-03T08:40:19.135Z,1.40
2023-04-03T08:42:49.390Z,1.30
2023-04-03T08:45:28.454Z,1.20
2023-04-03T08:48:08.749Z,1.30
2023-04-03T08:50:44.564Z,1.30
2023-04-03T08:53:20.861Z,1.10
2023-04-03T08:55:53.579Z,1.10
2023-04-03T08:58:34.496Z,1.10
2023-04-03T09:01:38.954Z,1.40
2023-04-03T09:04:18.568Z,1.10
2023-04-03T09:07:10.285Z,1.00
2023-04-03T09:09:45.778Z,1.30
2023-04-03T09:12:25.394Z,1.30
2023-04-03T09:15:38.418Z,1.10
2023-04-03T09:18:37.384Z,1.30
2023-04-03T09:21:23.672Z,1.10
2023-04-03T09:24:02.700Z,1.10
2023-04-03T09:27:04.932Z,1.10
2023-04-03T09:29:44.878Z,1.40
2023-04-03T09:32:25.049Z,1.10
2023-04-03T09:35:09.654Z,1.40
2023-04-03T09:37:51.048Z,1.30
2023-04-03T09:40:41.216Z,1.30
2023-04-03T09:43:34.166Z,1.60
2023-04-03T09:46:40.959Z,1.40
2023-04-03T09:49:14.558Z,1.20
2023-04-03T09:51:45.792Z,1.30
2023-04-03T09:54:42.267Z,1.40
2023-04-03T09:57:15.935Z,0.90
2023-04-03T10:00:01.260Z,1.20
2023-04-03T10:02:41.891Z,1.70
2023-04-03T10:05:39.979Z,1.00
2023-04-03T10:08:18.021Z,1.10
2023-04-03T10:10:52.872Z,1.20
2023-04-03T10:13:24.059Z,1.40
2023-04-03T10:16:04.964Z,0.90
2023-04-03T10:18:38.936Z,1.30
2023-04-03T10:21:26.702Z,1.10
2023-04-03T10:24:12.692Z,1.30
2023-04-03T10:26:58.535Z,1.40
2023-04-03T10:30:14.231Z,1.20
2023-04-03T10:33:00.166Z,1.10
2023-04-03T10:35:36.551Z,1.30
2023-04-03T10:38:24.166Z,1.50
2023-04-03T10:41:16.419Z,2.00
2023-04-03T10:44:07.146Z,1.50
2023-04-03T10:47:05.459Z,1.20
2023-04-03T10:49:53.488Z,1.50
2023-04-03T10:52:30.076Z,1.50
2023-04-03T10:55:43.580Z,1.40
2023-04-03T10:58:43.831Z,1.30
2023-04-03T11:01:24.490Z,1.50
2023-04-03T11:03:58.893Z,1.50
2023-04-03T11:06:41.186Z,1.60
2023-04-03T11:09:43.148Z,1.60
2023-04-03T11:12:48.103Z,1.30
2023-04-03T11:15:22.244Z,1.30
2023-04-03T11:18:07.342Z,1.20
2023-04-03T11:20:41.385Z,1.50
2023-04-03T11:23:48.969Z,1.40
2023-04-03T11:26:23.578Z,1.50
2023-04-03T11:29:02.703Z,1.40
2023-04-03T11:31:59.624Z,1.30
2023-04-03T11:34:46.638Z,1.50
2023-04-03T11:37:22.189Z,1.60
2023-04-03T11:40:08.683Z,1.10
2023-04-03T11:42:45.225Z,1.30
2023-04-03T11:45:29.314Z,1.50
2023-04-03T11:48:20.838Z,1.30
2023-04-03T11:50:58.340Z,1.90
2023-04-03T11:53:41.885Z,1.50
2023-04-03T11:56:29.736Z,1.40
2023-04-03T11:59:13.572Z,1.20
2023-04-03T12:01:51.411Z,1.30
2023-04-03T12:04:27.152Z,1.20
2023-04-03T12:07:14.958Z,1.30
2023-04-03T12:09:45.739Z,1.40
2023-04-03T12:12:36.818Z,1.30
2023-04-03T12:15:45.525Z,1.30
2023-04-03T12:18:47.301Z,1.00
2023-04-03T12:21:34.933Z,1.10
2023-04-03T12:24:12.074Z,1.30
2023-04-03T12:27:01.629Z,1.20
2023-04-03T12:29:35.231Z,1.10
2023-04-03T12:32:35.786Z,1.10
2023-04-03T12:35:31.467Z,1.40
2023-04-03T12:38:39.925Z,1.10
2023-04-03T12:41:41.279Z,1.50
2023-04-03T12:44:29.150Z,1.00
2023-04-03T12:47:12.050Z,0.90
2023-04-03T12:49:51.465Z,1.00
2023-04-03T12:52:35.546Z,0.90
2023-04-03T12:55:11.555Z,1.10
2023-04-03T12:57:47.554Z,1.20
2023-04-03T13:00:24.573Z,1.00
2023-04-03T13:02:55.209Z,1.00
2023-04-03T13:05:30.240Z,1.20
2023-04-03T13:08:12.818Z,1.00
2023-04-03T13:10:54.764Z,1.20
2023-04-03T13:13:29.454Z,1.00
2023-04-03T13:16:01.086Z,1.10
2023-04-03T13:18:37.286Z,1.00
2023-04-03T13:21:21.096Z,1.30
2023-04-03T13:24:00.569Z,1.20
2023-04-03T13:26:35.829Z,1.30
2023-04-03T13:29:20.690Z,1.30
2023-04-03T13:32:01.796Z,1.20
2023-04-03T13:34:41.010Z,1.30
2023-04-03T13:37:33.575Z,1.10
2023-04-03T13:40:03.992Z,1.40
2023-04-03T13:42:42.088Z,1.40
2023-04-03T13:45:22.076Z,1.20
2023-04-03T13:47:56.165Z,1.10
2023-04-03T13:50:30.382Z,1.50
2023-04-03T13:53:18.524Z,1.70
2023-04-03T13:56:00.133Z,1.30
2023-04-03T13:58:34.283Z,1.30
2023-04-03T14:01:10.849Z,1.20
2023-04-03T14:03:47.041Z,1.30
2023-04-03T14:06:21.372Z,1.50
2023-04-03T14:08:58.933Z,1.20
2023-04-03T14:11:37.110Z,1.20
2023-04-03T14:14:24.335Z,1.20
2023-04-03T14:17:00.106Z,1.30
2023-04-03T14:19:36.779Z,1.60
2023-04-03T14:22:21.966Z,1.40
2023-04-03T14:24:53.372Z,1.40
2023-04-03T14:27:31.176Z,1.50
2023-04-03T14:30:04.516Z,1.30
2023-04-03T14:32:36.321Z,1.30
2023-04-03T14:35:09.268Z,1.10
2023-04-03T14:37:39.851Z,1.40
2023-04-03T14:40:11.992Z,1.20
2023-04-03T14:42:42.423Z,1.50
2023-04-03T14:45:19.773Z,1.10
2023-04-03T14:47:58.584Z,1.20
2023-04-03T14:50:29.950Z,1.20
2023-04-03T14:53:01.910Z,1.20
2023-04-03T14:55:33.359Z,1.40
2023-04-03T14:58:04.954Z,1.70
2023-04-03T15:00:37.343Z,1.50
2023-04-03T15:03:17.621Z,1.30
2023-04-03T15:05:52.445Z,1.40
2023-04-03T15:08:28.550Z,1.40
2023-04-03T15:10:59.587Z,1.40
2023-04-03T15:13:33.581Z,1.50
2023-04-03T15:16:04.999Z,1.30
2023-04-03T15:18:44.595Z,1.60
2023-04-03T15:23:49.358Z,2.00
2023-04-03T15:26:21.151Z,1.50
2023-04-03T15:28:55.096Z,1.50
2023-04-03T15:31:27.839Z,1.80
2023-04-03T15:33:58.485Z,1.60
2023-04-03T15:36:34.164Z,1.70
2023-04-03T15:39:07.574Z,1.80
2023-04-03T15:41:40.608Z,1.40
2023-04-03T15:50:59.178Z,1.60
2023-04-03T15:53:32.098Z,2.00
2023-04-03T15:56:03.905Z,1.80
2023-04-03T15:58:34.483Z,2.30
2023-04-03T16:01:05.155Z,2.00
2023-04-03T16:03:45.257Z,2.20
2023-04-03T16:06:20.251Z,2.20
2023-04-03T16:08:53.817Z,2.10
2023-04-03T16:11:24.054Z,2.00
2023-04-03T16:13:55.799Z,2.30
2023-04-03T16:16:28.661Z,2.10
2023-04-03T16:19:00.925Z,1.90
2023-04-03T16:21:32.150Z,1.70
2023-04-03T16:24:04.113Z,1.80
2023-04-03T16:26:34.859Z,1.70
2023-04-03T16:29:05.401Z,1.90
2023-04-03T16:31:36.488Z,2.00
2023-04-03T16:34:06.946Z,1.60
2023-04-03T16:36:38.867Z,1.60
2023-04-03T16:39:11.094Z,1.40
2023-04-03T16:41:42.204Z,1.90
2023-04-03T16:44:13.276Z,1.80
2023-04-03T16:46:45.708Z,1.90
2023-04-03T16:49:17.030Z,1.90
2023-04-03T16:51:49.976Z,1.80
2023-04-03T16:54:21.482Z,1.70
2023-04-03T16:56:52.961Z,1.70
2023-04-03T16:59:27.993Z,2.10
2023-04-03T17:01:59.216Z,2.10
2023-04-03T17:04:33.376Z,2.10
2023-04-03T17:07:08.861Z,2.20
2023-04-03T17:09:43.944Z,2.20
2023-04-03T17:12:23.863Z,2.00
2023-04-03T17:14:55.052Z,1.60
2023-04-03T17:17:35.749Z,2.00
2023-04-03T17:20:07.456Z,1.40
2023-04-03T17:22:38.772Z,1.60
2023-04-03T17:25:10.552Z,1.60
2023-04-03T17:27:43.346Z,1.70
2023-04-03T17:30:21.555Z,1.90
2023-04-03T17:32:53.595Z,1.90
2023-04-03T17:35:28.509Z,1.90
2023-04-03T17:38:03.224Z,1.60
2023-04-03T17:40:34.939Z,2.00
2023-04-03T17:43:08.362Z,2.00
2023-04-03T17:45:39.903Z,2.10
2023-04-03T17:48:11.511Z,2.20
2023-04-03T17:50:44.737Z,1.90
2023-04-03T17:53:20.711Z,2.20
2023-04-03T17:56:00.078Z,2.00
2023-04-03T17:58:38.387Z,2.80
2023-04-03T18:01:21.600Z,2.50
2023-04-03T18:03:56.936Z,2.70
2023-04-03T18:06:34.717Z,2.70
2023-04-03T18:09:08.595Z,2.50
2023-04-03T18:11:41.073Z,3.10
2023-04-03T18:14:12.869Z,2.90
2023-04-03T18:16:45.370Z,2.50
2023-04-03T18:19:23.744Z,2.50
2023-04-03T18:21:59.381Z,2.60
2023-04-03T18:24:37.324Z,2.50
2023-04-03T18:27:17.462Z,3.00
2023-04-03T18:29:58.752Z,2.80
2023-04-03T18:32:31.082Z,2.50
2023-04-03T18:35:07.485Z,2.40
2023-04-03T18:37:44.558Z,2.70
2023-04-03T18:40:18.585Z,2.30
2023-04-03T18:42:54.001Z,2.40
2023-04-03T18:45:45.111Z,2.00
2023-04-03T18:48:26.071Z,2.10
2023-04-03T18:51:01.395Z,2.50
2023-04-03T18:53:36.863Z,2.40
2023-04-03T18:56:17.873Z,2.60
2023-04-03T18:58:57.480Z,2.70
2023-04-03T19:01:37.860Z,2.60
2023-04-03T19:04:10.813Z,2.60
2023-04-03T19:06:46.024Z,2.30
2023-04-03T19:09:27.157Z,2.30
2023-04-03T19:12:06.310Z,2.50
